createdAt,value
2023-02-28T00:02:19.467Z,5.50
2023-02-28T00:04:46.107Z,5.40
2023-02-28T00:07:12.634Z,5.53
2023-02-28T00:09:39.208Z,5.33
2023-02-28T00:12:11.040Z,5.23
2023-02-28T00:14:37.739Z,5.60
2023-02-28T00:17:04.236Z,5.70
2023-02-28T00:19:30.734Z,5.90
2023-02-28T00:21:57.254Z,5.20
2023-02-28T00:24:23.766Z,5.80
2023-02-28T00:26:50.492Z,5.83
2023-02-28T00:29:17.524Z,5.77
2023-02-28T00:31:44.660Z,6.43
2023-02-28T00:34:11.495Z,5.40
2023-02-28T00:36:38.085Z,6.17
2023-02-28T00:39:04.811Z,6.43
2023-02-28T00:41:31.309Z,6.50
2023-02-28T00:43:57.814Z,5.67
2023-02-28T00:46:24.646Z,6.40
2023-02-28T00:48:51.220Z,6.33
2023-02-28T00:51:17.817Z,6.27
2023-02-28T00:53:44.364Z,6.40
2023-02-28T00:56:10.977Z,6.53
2023-02-28T00:58:37.500Z,6.40
2023-02-28T01:01:04.214Z,6.13
2023-02-28T01:03:31.329Z,6.20
2023-02-28T01:05:58.746Z,6.00
2023-02-28T01:08:25.468Z,7.07
2023-02-28T01:10:51.993Z,5.70
2023-02-28T01:13:18.923Z,7.27
2023-02-28T01:15:53.404Z,6.93
2023-02-28T01:18:20.979Z,6.93
2023-02-28T01:20:47.502Z,7.00
2023-02-28T01:23:14.089Z,6.77
2023-02-28T01:25:40.922Z,6.73
2023-02-28T01:28:07.479Z,6.97
2023-02-28T01:30:34.821Z,6.27
2023-02-28T01:33:01.387Z,6.70
2023-02-28T01:35:27.902Z,6.83
2023-02-28T01:37:54.791Z,6.23
2023-02-28T01:40:21.726Z,6.70
2023-02-28T01:42:48.256Z,6.23
2023-02-28T01:45:20.182Z,6.43
2023-02-28T01:47:48.773Z,7.10
2023-02-28T01:50:20.099Z,6.03
2023-02-28T01:52:47.954Z,6.33
2023-02-28T01:55:15.872Z,6.57
2023-02-28T01:57:44.360Z,7.37
2023-02-28T02:00:14.310Z,6.97
2023-02-28T02:02:42.840Z,6.40
2023-02-28T02:05:11.254Z,6.40
2023-02-28T02:07:39.755Z,6.03
2023-02-28T02:10:17.060Z,6.60
2023-02-28T02:12:53.788Z,6.07
2023-02-28T02:15:40.653Z,6.27
2023-02-28T02:18:22.721Z,6.33
2023-02-28T02:20:58.482Z,5.77
2023-02-28T02:23:28.350Z,5.80
2023-02-28T02:26:02.128Z,6.27
2023-02-28T02:28:54.683Z,6.00
2023-02-28T02:31:24.284Z,6.13
2023-02-28T02:34:09.431Z,5.37
2023-02-28T02:36:38.777Z,6.13
2023-02-28T02:39:08.879Z,5.67
2023-02-28T02:41:52.710Z,6.13
2023-02-28T02:44:24.181Z,5.60
2023-02-28T02:46:53.207Z,5.00
2023-02-28T02:49:22.680Z,5.43
2023-02-28T02:51:49.465Z,6.23
2023-02-28T02:54:21.965Z,5.70
2023-02-28T02:56:50.027Z,5.07
2023-02-28T02:59:22.419Z,6.27
2023-02-28T03:01:54.448Z,5.70
2023-02-28T03:04:22.760Z,5.80
2023-02-28T03:06:51.273Z,5.10
2023-02-28T03:09:17.820Z,5.40
2023-02-28T03:11:45.821Z,5.97
2023-02-28T03:14:15.407Z,5.40
2023-02-28T03:17:00.472Z,5.47
2023-02-28T03:19:27.458Z,6.10
2023-02-28T03:22:00.166Z,5.83
2023-02-28T03:24:32.837Z,5.43
2023-02-28T03:27:04.501Z,5.90
2023-02-28T03:29:31.017Z,5.60
2023-02-28T03:32:04.430Z,6.50
2023-02-28T03:34:33.951Z,6.03
2023-02-28T03:37:03.637Z,5.33
2023-02-28T03:39:38.905Z,6.33
2023-02-28T03:42:07.911Z,5.67
2023-02-28T03:44:40.315Z,5.80
2023-02-28T03:47:12.287Z,6.07
2023-02-28T03:49:45.526Z,6.23
2023-02-28T03:52:12.109Z,5.90
2023-02-28T03:55:01.584Z,6.00
2023-02-28T03:57:28.177Z,6.00
2023-02-28T03:59:57.470Z,6.27
2023-02-28T04:02:24.020Z,6.27
2023-02-28T04:04:51.126Z,6.97
2023-02-28T04:07:18.224Z,7.00
2023-02-28T04:09:44.754Z,7.00
2023-02-28T04:12:11.861Z,7.50
2023-02-28T04:14:38.399Z,7.20
2023-02-28T04:17:05.109Z,6.40
2023-02-28T04:19:31.672Z,6.57
2023-02-28T04:21:58.172Z,6.47
2023-02-28T04:24:26.235Z,6.50
2023-02-28T04:26:54.062Z,6.50
2023-02-28T04:29:25.380Z,7.23
2023-02-28T04:31:54.238Z,6.87
2023-02-28T04:34:22.286Z,6.43
2023-02-28T04:37:06.065Z,7.80
2023-02-28T04:39:37.524Z,7.20
2023-02-28T04:42:04.516Z,7.33
2023-02-28T04:44:31.026Z,9.37
2023-02-28T04:46:57.622Z,7.43
2023-02-28T04:49:24.205Z,7.10
2023-02-28T04:51:50.991Z,6.77
2023-02-28T04:54:19.050Z,7.70
2023-02-28T04:56:45.783Z,7.23
2023-02-28T04:59:12.334Z,6.80
2023-02-28T05:01:38.863Z,7.83
2023-02-28T05:04:05.718Z,8.13
2023-02-28T05:06:33.573Z,7.40
2023-02-28T05:09:00.481Z,7.40
2023-02-28T05:11:27.123Z,7.33
2023-02-28T05:13:55.119Z,7.93
2023-02-28T05:16:22.024Z,7.57
2023-02-28T05:18:48.675Z,7.87
2023-02-28T05:21:26.335Z,7.13
2023-02-28T05:23:53.405Z,7.60
2023-02-28T05:26:20.260Z,7.63
2023-02-28T05:28:46.838Z,7.40
2023-02-28T05:31:13.628Z,7.37
2023-02-28T05:33:40.723Z,7.93
2023-02-28T05:36:07.803Z,7.73
2023-02-28T05:38:34.329Z,7.33
2023-02-28T05:41:00.813Z,7.63
2023-02-28T05:43:27.388Z,7.47
2023-02-28T05:45:53.980Z,7.53
2023-02-28T05:48:20.503Z,7.53
2023-02-28T05:50:47.127Z,10.13
2023-02-28T05:53:13.880Z,9.27
2023-02-28T05:55:42.125Z,7.97
2023-02-28T05:58:08.791Z,7.53
2023-02-28T06:00:35.303Z,8.00
2023-02-28T06:03:02.788Z,7.67
2023-02-28T06:05:29.380Z,7.73
2023-02-28T06:07:55.909Z,7.47
2023-02-28T06:10:22.440Z,8.73
2023-02-28T06:12:48.989Z,8.40
2023-02-28T06:15:16.190Z,8.50
2023-02-28T06:17:43.255Z,8.87
2023-02-28T06:20:10.304Z,8.70
2023-02-28T06:22:37.149Z,9.10
2023-02-28T06:25:04.566Z,9.50
2023-02-28T06:27:31.700Z,9.00
2023-02-28T06:29:58.334Z,9.00
2023-02-28T06:32:24.969Z,9.07
2023-02-28T06:34:51.809Z,9.23
2023-02-28T06:37:18.957Z,9.33
2023-02-28T06:39:45.602Z,8.93
2023-02-28T06:42:12.131Z,8.70
2023-02-28T06:44:39.592Z,8.27
2023-02-28T06:47:06.769Z,9.13
2023-02-28T06:49:34.174Z,9.47
2023-02-28T06:52:00.835Z,9.83
2023-02-28T06:54:28.191Z,10.17
2023-02-28T06:56:55.411Z,9.30
2023-02-28T06:59:22.117Z,9.13
2023-02-28T07:01:48.807Z,8.60
2023-02-28T07:04:15.398Z,10.13
2023-02-28T07:06:41.952Z,9.60
2023-02-28T07:09:08.975Z,9.27
2023-02-28T07:11:35.580Z,9.13
2023-02-28T07:14:02.138Z,9.17
2023-02-28T07:16:28.815Z,8.97
2023-02-28T07:18:55.838Z,8.30
2023-02-28T07:21:22.383Z,9.37
2023-02-28T07:23:48.939Z,9.13
2023-02-28T07:26:16.419Z,8.57
2023-02-28T07:28:45.846Z,8.93
2023-02-28T07:31:13.152Z,9.37
2023-02-28T07:33:39.754Z,9.00
2023-02-28T07:36:10.648Z,9.00
2023-02-28T07:38:38.334Z,9.20
2023-02-28T07:41:05.360Z,9.07
2023-02-28T07:43:32.755Z,9.87
2023-02-28T07:46:03.771Z,9.17
2023-02-28T07:48:30.299Z,10.30
2023-02-28T07:50:57.578Z,10.60
2023-02-28T07:53:24.114Z,10.97
2023-02-28T07:55:50.601Z,10.43
2023-02-28T07:58:17.119Z,9.17
2023-02-28T08:00:43.691Z,8.93
2023-02-28T08:03:13.008Z,9.70
2023-02-28T08:05:41.221Z,9.20
2023-02-28T08:08:10.799Z,10.23
2023-02-28T08:10:37.664Z,9.83
2023-02-28T08:13:04.334Z,10.50
2023-02-28T08:15:30.856Z,11.10
2023-02-28T08:17:57.548Z,10.77
2023-02-28T08:20:25.032Z,10.40
2023-02-28T08:22:51.575Z,11.03
2023-02-28T08:25:18.166Z,9.77
2023-02-28T08:27:44.702Z,10.90
2023-02-28T08:30:15.352Z,10.53
2023-02-28T08:32:42.152Z,9.77
2023-02-28T08:35:10.192Z,9.33
2023-02-28T08:37:36.840Z,9.30
2023-02-28T08:40:05.056Z,9.87
2023-02-28T08:42:32.823Z,10.23
2023-02-28T08:44:59.323Z,10.67
2023-02-28T08:47:25.955Z,10.43
2023-02-28T08:49:52.513Z,9.10
2023-02-28T08:52:19.090Z,10.03
2023-02-28T08:54:45.583Z,10.98
2023-02-28T08:57:12.103Z,9.27
2023-02-28T08:59:38.721Z,9.63
2023-02-28T09:02:05.314Z,8.80
2023-02-28T09:04:32.066Z,8.67
2023-02-28T09:06:58.690Z,8.53
2023-02-28T09:09:25.241Z,7.60
2023-02-28T09:11:51.739Z,7.60
2023-02-28T09:14:18.638Z,7.47
2023-02-28T09:16:45.219Z,6.67
2023-02-28T09:19:12.564Z,6.33
2023-02-28T09:21:39.125Z,7.07
2023-02-28T09:24:05.846Z,5.90
2023-02-28T09:26:38.857Z,5.40
2023-02-28T09:29:09.972Z,4.90
2023-02-28T09:31:36.582Z,4.37
2023-02-28T09:34:03.208Z,4.40
2023-02-28T09:36:41.820Z,4.50
2023-02-28T09:39:10.532Z,3.90
2023-02-28T09:41:51.975Z,4.00
2023-02-28T09:44:30.308Z,4.30
2023-02-28T09:47:00.692Z,4.10
2023-02-28T09:49:32.570Z,5.17
2023-02-28T09:51:59.771Z,6.70
2023-02-28T09:54:28.812Z,6.20
2023-02-28T09:57:18.373Z,5.40
2023-02-28T09:59:55.484Z,5.80
2023-02-28T10:02:24.808Z,7.07
2023-02-28T10:05:01.770Z,5.53
2023-02-28T10:07:28.407Z,5.47
2023-02-28T10:09:58.126Z,5.80
2023-02-28T10:12:25.814Z,6.77
2023-02-28T10:14:53.939Z,5.20
2023-02-28T10:17:26.496Z,6.67
2023-02-28T10:20:02.123Z,4.90
2023-02-28T10:22:33.222Z,5.33
2023-02-28T10:25:05.077Z,8.40
2023-02-28T10:27:33.706Z,3.97
2023-02-28T10:30:01.729Z,4.30
2023-02-28T10:32:31.201Z,3.67
2023-02-28T10:35:16.272Z,4.00
2023-02-28T10:37:43.836Z,3.63
2023-02-28T10:40:30.941Z,3.60
2023-02-28T10:43:02.377Z,3.50
2023-02-28T10:45:30.682Z,4.03
2023-02-28T10:47:59.047Z,3.80
2023-02-28T10:50:30.363Z,4.50
2023-02-28T10:53:06.102Z,4.17
2023-02-28T10:55:32.755Z,4.47
2023-02-28T10:57:59.303Z,4.30
2023-02-28T11:00:32.319Z,4.50
2023-02-28T11:02:58.844Z,4.73
2023-02-28T11:05:27.476Z,3.67
2023-02-28T11:07:55.134Z,4.00
2023-02-28T11:10:24.216Z,3.10
2023-02-28T11:12:53.312Z,3.27
2023-02-28T11:15:22.993Z,3.60
2023-02-28T11:17:55.475Z,3.40
2023-02-28T11:20:24.358Z,3.60
2023-02-28T11:22:51.715Z,3.60
2023-02-28T11:25:23.864Z,3.30
2023-02-28T11:27:51.779Z,3.63
2023-02-28T11:30:27.451Z,3.63
2023-02-28T11:32:54.552Z,3.60
2023-02-28T11:35:27.285Z,3.97
2023-02-28T11:37:54.460Z,3.83
2023-02-28T11:40:35.130Z,3.80
2023-02-28T11:43:07.795Z,4.30
2023-02-28T11:45:34.285Z,4.10
2023-02-28T11:48:30.103Z,4.23
2023-02-28T11:51:04.325Z,3.53
2023-02-28T11:53:36.771Z,4.30
2023-02-28T11:56:12.411Z,3.73
2023-02-28T11:58:48.563Z,3.73
2023-02-28T12:01:25.952Z,3.60
2023-02-28T12:03:58.610Z,3.47
2023-02-28T12:06:43.592Z,4.70
2023-02-28T12:09:28.791Z,20.20
2023-02-28T12:11:57.246Z,48.07
2023-02-28T12:14:23.756Z,3.90
2023-02-28T12:17:02.231Z,3.43
2023-02-28T12:19:54.404Z,3.50
2023-02-28T12:22:43.604Z,3.53
2023-02-28T12:25:21.558Z,3.13
2023-02-28T12:27:48.989Z,3.30
2023-02-28T12:30:20.606Z,3.80
2023-02-28T12:32:49.747Z,3.30
2023-02-28T12:35:19.602Z,3.47
2023-02-28T12:37:49.855Z,3.30
2023-02-28T12:40:16.408Z,2.93
2023-02-28T12:42:47.358Z,3.43
2023-02-28T12:45:24.918Z,2.93
2023-02-28T12:47:53.109Z,3.40
2023-02-28T12:50:20.813Z,3.23
2023-02-28T12:53:06.373Z,3.30
2023-02-28T12:55:53.185Z,3.50
2023-02-28T12:58:34.591Z,7.33
2023-02-28T13:01:04.265Z,3.00
2023-02-28T13:03:31.420Z,2.73
2023-02-28T13:06:00.688Z,3.50
2023-02-28T13:08:38.372Z,3.37
2023-02-28T13:11:10.049Z,3.50
2023-02-28T13:13:39.953Z,2.90
2023-02-28T13:16:10.128Z,3.10
2023-02-28T13:18:38.252Z,3.20
2023-02-28T13:21:06.913Z,3.43
2023-02-28T13:23:47.989Z,3.20
2023-02-28T13:26:14.494Z,3.10
2023-02-28T13:28:50.145Z,3.50
2023-02-28T13:31:18.179Z,4.20
2023-02-28T13:33:49.078Z,3.10
2023-02-28T13:36:19.118Z,3.23
2023-02-28T13:38:49.014Z,3.30
2023-02-28T13:41:31.164Z,3.53
2023-02-28T13:44:04.053Z,2.93
2023-02-28T13:46:31.320Z,3.20
2023-02-28T13:49:18.047Z,3.03
2023-02-28T13:51:47.879Z,3.23
2023-02-28T13:54:23.358Z,3.00
2023-02-28T13:56:58.442Z,3.60
2023-02-28T13:59:33.280Z,3.03
2023-02-28T14:02:18.722Z,4.67
2023-02-28T14:04:59.672Z,3.27
2023-02-28T14:07:36.101Z,3.23
2023-02-28T14:10:06.569Z,3.53
2023-02-28T14:12:52.001Z,3.40
2023-02-28T14:15:27.492Z,4.03
2023-02-28T14:17:57.761Z,3.60
2023-02-28T14:20:25.959Z,3.33
2023-02-28T14:22:55.245Z,4.10
2023-02-28T14:25:22.871Z,4.03
2023-02-28T14:27:54.600Z,3.37
2023-02-28T14:30:22.477Z,3.87
2023-02-28T14:32:49.036Z,3.30
2023-02-28T14:35:34.507Z,3.63
2023-02-28T14:38:05.304Z,3.73
2023-02-28T14:40:33.375Z,3.50
2023-02-28T14:43:00.928Z,3.30
2023-02-28T14:45:30.311Z,3.43
2023-02-28T14:47:57.706Z,3.60
2023-02-28T14:50:32.334Z,3.40
2023-02-28T14:52:59.893Z,3.20
2023-02-28T14:55:30.783Z,3.40
2023-02-28T14:57:59.378Z,3.07
2023-02-28T15:00:30.534Z,4.57
2023-02-28T15:02:57.644Z,3.80
2023-02-28T15:05:31.571Z,4.13
2023-02-28T15:08:03.994Z,3.50
2023-02-28T15:10:31.632Z,4.17
2023-02-28T15:12:59.791Z,4.47
2023-02-28T15:15:35.920Z,3.73
2023-02-28T15:18:08.204Z,4.03
2023-02-28T15:20:36.097Z,3.97
2023-02-28T15:23:02.848Z,4.30
2023-02-28T15:25:29.457Z,4.13
2023-02-28T15:27:57.145Z,3.90
2023-02-28T15:30:28.569Z,4.40
2023-02-28T15:33:18.524Z,3.90
2023-02-28T15:35:45.457Z,3.80
2023-02-28T15:38:32.246Z,18.00
2023-02-28T15:40:59.602Z,17.37
2023-02-28T15:43:33.355Z,14.87
2023-02-28T15:46:00.122Z,4.60
2023-02-28T15:48:28.626Z,5.37
2023-02-28T15:50:56.588Z,4.37
2023-02-28T15:53:25.135Z,4.80
2023-02-28T15:55:56.955Z,4.17
2023-02-28T15:58:25.490Z,4.37
2023-02-28T16:01:02.422Z,4.33
2023-02-28T16:03:36.093Z,4.73
2023-02-28T16:06:17.649Z,4.10
2023-02-28T16:08:45.346Z,3.97
2023-02-28T16:11:11.974Z,3.80
2023-02-28T16:13:38.489Z,4.30
2023-02-28T16:16:05.356Z,4.27
2023-02-28T16:18:31.973Z,4.70
2023-02-28T16:20:58.571Z,4.10
2023-02-28T16:23:25.084Z,4.30
2023-02-28T16:25:52.882Z,5.07
2023-02-28T16:28:19.453Z,4.20
2023-02-28T16:30:46.063Z,6.00
2023-02-28T16:33:12.651Z,8.80
2023-02-28T16:35:39.170Z,8.10
2023-02-28T16:38:05.781Z,9.20
2023-02-28T16:40:34.693Z,10.53
2023-02-28T16:43:01.449Z,10.83
2023-02-28T16:45:28.730Z,10.00
2023-02-28T16:47:55.754Z,8.20
2023-02-28T16:50:24.027Z,7.77
2023-02-28T16:52:53.106Z,7.27
2023-02-28T16:55:19.779Z,7.73
2023-02-28T16:57:49.336Z,7.40
2023-02-28T17:00:15.962Z,6.83
2023-02-28T17:02:43.189Z,6.00
2023-02-28T17:05:11.890Z,5.90
2023-02-28T17:07:38.754Z,5.53
2023-02-28T17:10:16.170Z,6.53
2023-02-28T17:12:43.049Z,7.10
2023-02-28T17:15:10.519Z,6.53
2023-02-28T17:17:37.165Z,6.60
2023-02-28T17:20:04.313Z,5.03
2023-02-28T17:22:30.831Z,4.80
2023-02-28T17:24:58.595Z,5.47
2023-02-28T17:27:25.729Z,4.90
2023-02-28T17:29:52.210Z,7.00
2023-02-28T17:32:18.977Z,8.33
2023-02-28T17:34:46.983Z,11.10
2023-02-28T17:37:13.773Z,11.37
2023-02-28T17:39:40.286Z,12.00
2023-02-28T17:42:06.812Z,12.00
2023-02-28T17:44:33.444Z,9.13
2023-02-28T17:47:00.030Z,9.47
2023-02-28T17:49:26.554Z,10.77
2023-02-28T17:51:53.172Z,7.77
2023-02-28T17:54:19.737Z,7.10
2023-02-28T17:56:47.195Z,5.60
2023-02-28T17:59:13.788Z,5.03
2023-02-28T18:01:40.435Z,6.50
2023-02-28T18:04:07.263Z,7.30
2023-02-28T18:06:51.358Z,7.67
2023-02-28T18:09:19.084Z,9.43
2023-02-28T18:11:51.601Z,10.97
2023-02-28T18:14:19.589Z,11.33
2023-02-28T18:16:46.498Z,14.00
2023-02-28T18:19:17.564Z,14.27
2023-02-28T18:21:44.891Z,12.47
2023-02-28T18:24:11.797Z,12.37
2023-02-28T18:26:39.185Z,11.20
2023-02-28T18:29:06.742Z,9.77
2023-02-28T18:31:33.861Z,10.73
2023-02-28T18:34:00.949Z,12.53
2023-02-28T18:36:28.719Z,11.60
2023-02-28T18:38:55.572Z,11.13
2023-02-28T18:41:22.690Z,12.63
2023-02-28T18:43:51.446Z,13.03
2023-02-28T18:46:20.106Z,16.60
2023-02-28T18:48:46.674Z,22.17
2023-02-28T18:51:14.795Z,32.17
2023-02-28T18:53:42.229Z,33.43
2023-02-28T18:56:10.546Z,26.90
2023-02-28T18:58:37.631Z,25.07
2023-02-28T19:01:12.403Z,23.93
2023-02-28T19:03:39.003Z,21.13
2023-02-28T19:06:05.688Z,19.23
2023-02-28T19:08:32.756Z,18.30
2023-02-28T19:10:59.253Z,17.43
2023-02-28T19:13:25.786Z,23.80
2023-02-28T19:16:00.638Z,35.83
2023-02-28T19:18:27.223Z,39.47
2023-02-28T19:20:53.878Z,38.27
2023-02-28T19:23:20.616Z,37.23
2023-02-28T19:25:47.635Z,35.53
2023-02-28T19:28:14.574Z,37.67
2023-02-28T19:30:46.283Z,35.00
2023-02-28T19:33:12.854Z,41.30
2023-02-28T19:35:43.215Z,43.87
2023-02-28T19:38:09.919Z,47.77
2023-02-28T19:40:36.869Z,41.23
2023-02-28T19:43:05.342Z,48.47
2023-02-28T19:45:33.097Z,43.43
2023-02-28T19:47:59.660Z,40.90
2023-02-28T19:50:26.405Z,34.13
2023-02-28T19:52:53.032Z,37.07
2023-02-28T19:55:19.698Z,39.43
2023-02-28T19:57:46.542Z,39.70
2023-02-28T20:00:14.481Z,46.30
2023-02-28T20:02:41.823Z,46.83
2023-02-28T20:05:08.590Z,46.13
2023-02-28T20:07:35.478Z,46.67
2023-02-28T20:10:02.043Z,43.97
2023-02-28T20:12:28.578Z,42.10
2023-02-28T20:14:58.187Z,39.30
2023-02-28T20:17:24.791Z,37.53
2023-02-28T20:19:51.312Z,38.40
2023-02-28T20:22:17.870Z,39.93
2023-02-28T20:24:44.420Z,38.17
2023-02-28T20:27:10.927Z,39.17
2023-02-28T20:29:37.460Z,44.60
2023-02-28T20:32:04.084Z,46.70
2023-02-28T20:34:30.683Z,44.17
2023-02-28T20:36:58.738Z,40.23
2023-02-28T20:39:25.432Z,39.57
2023-02-28T20:41:52.024Z,38.70
2023-02-28T20:44:19.352Z,35.20
2023-02-28T20:46:45.864Z,34.77
2023-02-28T20:49:12.644Z,33.73
2023-02-28T20:51:40.264Z,33.00
2023-02-28T20:54:07.805Z,34.17
2023-02-28T20:56:34.708Z,33.33
2023-02-28T20:59:01.265Z,32.30
2023-02-28T21:01:28.607Z,32.07
2023-02-28T21:03:56.875Z,32.83
2023-02-28T21:06:26.382Z,34.63
2023-02-28T21:08:53.343Z,33.03
2023-02-28T21:11:21.665Z,33.90
2023-02-28T21:13:48.316Z,34.53
2023-02-28T21:16:16.007Z,35.23
2023-02-28T21:18:42.526Z,34.03
2023-02-28T21:21:16.843Z,37.72
2023-02-28T21:23:45.383Z,31.77
2023-02-28T21:26:13.549Z,30.30
2023-02-28T21:28:46.386Z,29.27
2023-02-28T21:31:16.421Z,28.83
2023-02-28T21:33:43.384Z,26.27
2023-02-28T21:36:20.041Z,24.83
2023-02-28T21:38:47.264Z,22.03
2023-02-28T21:41:14.956Z,19.63
2023-02-28T21:43:42.178Z,17.80
2023-02-28T21:46:10.701Z,17.40
2023-02-28T21:48:37.898Z,16.10
2023-02-28T21:51:06.617Z,17.00
2023-02-28T21:53:33.872Z,16.00
2023-02-28T21:56:01.551Z,15.00
2023-02-28T21:58:28.128Z,13.50
2023-02-28T22:00:54.909Z,11.60
2023-02-28T22:03:21.442Z,11.67
2023-02-28T22:05:47.974Z,13.07
2023-02-28T22:08:14.466Z,15.87
2023-02-28T22:10:40.984Z,15.93
2023-02-28T22:13:07.527Z,14.47
2023-02-28T22:15:37.592Z,13.47
2023-02-28T22:18:04.176Z,12.63
2023-02-28T22:20:30.774Z,12.60
2023-02-28T22:22:57.357Z,12.70
2023-02-28T22:25:23.869Z,12.27
2023-02-28T22:27:50.403Z,14.43
2023-02-28T22:30:17.207Z,16.20
2023-02-28T22:32:43.756Z,17.43
2023-02-28T22:35:10.322Z,18.13
2023-02-28T22:37:36.875Z,16.63
2023-02-28T22:40:03.684Z,14.90
2023-02-28T22:42:32.721Z,13.60
2023-02-28T22:44:59.229Z,15.17
2023-02-28T22:47:26.562Z,14.10
2023-02-28T22:49:53.216Z,13.00
2023-02-28T22:52:19.737Z,15.15
2023-02-28T22:54:49.140Z,12.73
2023-02-28T22:57:15.658Z,12.80
2023-02-28T22:59:42.228Z,12.43
2023-02-28T23:02:08.818Z,11.03
2023-02-28T23:04:35.932Z,11.63
2023-02-28T23:07:02.716Z,12.23
2023-02-28T23:09:29.219Z,11.80
2023-02-28T23:11:55.794Z,12.43
2023-02-28T23:14:22.424Z,10.57
2023-02-28T23:16:50.293Z,11.83
2023-02-28T23:19:18.454Z,11.13
2023-02-28T23:21:45.718Z,10.90
2023-02-28T23:24:13.194Z,11.33
2023-02-28T23:26:41.938Z,11.13
2023-02-28T23:29:08.925Z,10.67
2023-02-28T23:31:35.703Z,10.77
2023-02-28T23:34:02.402Z,11.30
2023-02-28T23:36:30.191Z,10.10
2023-02-28T23:38:56.998Z,11.43
2023-02-28T23:41:24.128Z,11.27
2023-02-28T23:43:51.738Z,10.60
2023-02-28T23:46:18.581Z,10.87
2023-02-28T23:48:45.520Z,10.53
2023-02-28T23:51:16.967Z,10.70
2023-02-28T23:53:44.813Z,9.77
2023-02-28T23:56:14.756Z,10.10
2023-02-28T23:58:42.398Z,10.20
